sensor_id;sensor_type;location;lat;lon;timestamp;pressure;altitude;pressure_sealevel;temperature;humidity
35507;BME280;36461;52.018;21.036;2023-06-22T00:01:28;100364.35;;;19.14;96.62
35507;BME280;36461;52.018;21.036;2023-06-22T00:03:57;100364.38;;;19.11;96.80
35507;BME280;36461;52.018;21.036;2023-06-22T00:06:25;100366.96;;;19.06;96.66
35507;BME280;36461;52.018;21.036;2023-06-22T00:08:53;100359.50;;;19.03;96.70
35507;BME280;36461;52.018;21.036;2023-06-22T00:11:21;100357.19;;;18.98;96.86
35507;BME280;36461;52.018;21.036;2023-06-22T00:13:49;100358.85;;;18.94;96.96
35507;BME280;36461;52.018;21.036;2023-06-22T00:16:19;100355.91;;;18.91;97.12
35507;BME280;36461;52.018;21.036;2023-06-22T00:18:47;100356.91;;;18.88;97.17
35507;BME280;36461;52.018;21.036;2023-06-22T00:21:16;100355.77;;;18.84;97.04
35507;BME280;36461;52.018;21.036;2023-06-22T00:23:45;100359.23;;;18.82;97.22
35507;BME280;36461;52.018;21.036;2023-06-22T00:26:13;100360.31;;;18.79;97.14
35507;BME280;36461;52.018;21.036;2023-06-22T00:28:41;100362.73;;;18.77;97.28
35507;BME280;36461;52.018;21.036;2023-06-22T00:31:10;100362.32;;;18.75;97.30
35507;BME280;36461;52.018;21.036;2023-06-22T00:33:38;100360.77;;;18.73;97.23
35507;BME280;36461;52.018;21.036;2023-06-22T00:36:07;100357.50;;;18.69;97.31
35507;BME280;36461;52.018;21.036;2023-06-22T00:38:38;100356.73;;;18.67;97.44
35507;BME280;36461;52.018;21.036;2023-06-22T00:41:09;100352.55;;;18.65;97.54
35507;BME280;36461;52.018;21.036;2023-06-22T00:43:37;100351.31;;;18.62;97.53
35507;BME280;36461;52.018;21.036;2023-06-22T00:46:05;100352.84;;;18.60;97.49
35507;BME280;36461;52.018;21.036;2023-06-22T00:48:33;100352.88;;;18.57;97.54
35507;BME280;36461;52.018;21.036;2023-06-22T00:51:05;100350.86;;;18.55;97.64
35507;BME280;36461;52.018;21.036;2023-06-22T00:53:33;100349.73;;;18.54;97.62
35507;BME280;36461;52.018;21.036;2023-06-22T00:56:04;100349.37;;;18.51;97.75
35507;BME280;36461;52.018;21.036;2023-06-22T00:58:36;100351.03;;;18.50;97.74
35507;BME280;36461;52.018;21.036;2023-06-22T01:01:05;100350.14;;;18.48;97.86
35507;BME280;36461;52.018;21.036;2023-06-22T01:03:33;100344.89;;;18.45;97.91
35507;BME280;36461;52.018;21.036;2023-06-22T01:06:10;100337.27;;;18.44;97.97
35507;BME280;36461;52.018;21.036;2023-06-22T01:08:50;100332.69;;;18.41;97.96
35507;BME280;36461;52.018;21.036;2023-06-22T01:11:28;100327.27;;;18.39;98.06
35507;BME280;36461;52.018;21.036;2023-06-22T01:14:01;100323.29;;;18.38;98.33
35507;BME280;36461;52.018;21.036;2023-06-22T01:16:33;100321.41;;;18.39;98.59
35507;BME280;36461;52.018;21.036;2023-06-22T01:21:44;100327.09;;;18.41;98.83
35507;BME280;36461;52.018;21.036;2023-06-22T01:24:27;100332.84;;;18.41;98.82
35507;BME280;36461;52.018;21.036;2023-06-22T01:29:55;100338.80;;;18.41;99.04
35507;BME280;36461;52.018;21.036;2023-06-22T01:32:34;100336.00;;;18.39;98.90
35507;BME280;36461;52.018;21.036;2023-06-22T01:35:05;100332.70;;;18.36;99.00
35507;BME280;36461;52.018;21.036;2023-06-22T01:37:35;100331.04;;;18.37;99.31
35507;BME280;36461;52.018;21.036;2023-06-22T01:40:08;100333.17;;;18.36;99.17
35507;BME280;36461;52.018;21.036;2023-06-22T01:42:37;100323.91;;;18.36;99.51
35507;BME280;36461;52.018;21.036;2023-06-22T01:45:08;100321.71;;;18.35;99.34
35507;BME280;36461;52.018;21.036;2023-06-22T01:47:39;100325.38;;;18.32;99.41
35507;BME280;36461;52.018;21.036;2023-06-22T01:50:08;100329.41;;;18.30;99.26
35507;BME280;36461;52.018;21.036;2023-06-22T01:52:37;100332.39;;;18.24;99.18
35507;BME280;36461;52.018;21.036;2023-06-22T01:55:06;100332.13;;;18.20;99.11
35507;BME280;36461;52.018;21.036;2023-06-22T01:57:36;100331.67;;;18.19;99.35
35507;BME280;36461;52.018;21.036;2023-06-22T02:00:11;100338.85;;;18.19;99.51
35507;BME280;36461;52.018;21.036;2023-06-22T02:02:54;100346.95;;;18.16;99.25
35507;BME280;36461;52.018;21.036;2023-06-22T02:05:35;100352.96;;;18.12;99.30
35507;BME280;36461;52.018;21.036;2023-06-22T02:08:09;100361.92;;;18.09;99.27
35507;BME280;36461;52.018;21.036;2023-06-22T02:10:40;100368.33;;;18.07;99.21
35507;BME280;36461;52.018;21.036;2023-06-22T02:13:10;100369.86;;;18.08;99.43
35507;BME280;36461;52.018;21.036;2023-06-22T02:15:39;100371.83;;;18.10;99.60
35507;BME280;36461;52.018;21.036;2023-06-22T02:18:07;100372.09;;;18.14;99.69
35507;BME280;36461;52.018;21.036;2023-06-22T02:20:37;100368.28;;;18.16;99.52
35507;BME280;36461;52.018;21.036;2023-06-22T02:23:06;100374.61;;;18.16;99.23
35507;BME280;36461;52.018;21.036;2023-06-22T02:25:35;100376.79;;;18.15;99.12
35507;BME280;36461;52.018;21.036;2023-06-22T02:28:04;100381.60;;;18.14;99.15
35507;BME280;36461;52.018;21.036;2023-06-22T02:30:32;100380.52;;;18.14;99.22
35507;BME280;36461;52.018;21.036;2023-06-22T02:33:00;100389.45;;;18.17;99.42
35507;BME280;36461;52.018;21.036;2023-06-22T02:35:29;100393.43;;;18.20;99.55
35507;BME280;36461;52.018;21.036;2023-06-22T02:38:00;100385.88;;;18.23;99.60
35507;BME280;36461;52.018;21.036;2023-06-22T02:40:29;100386.58;;;18.26;99.63
35507;BME280;36461;52.018;21.036;2023-06-22T02:42:58;100386.09;;;18.28;99.58
35507;BME280;36461;52.018;21.036;2023-06-22T02:45:31;100392.21;;;18.31;99.57
35507;BME280;36461;52.018;21.036;2023-06-22T02:47:59;100394.02;;;18.33;99.69
35507;BME280;36461;52.018;21.036;2023-06-22T02:50:28;100399.67;;;18.35;99.49
35507;BME280;36461;52.018;21.036;2023-06-22T02:52:58;100398.73;;;18.36;99.61
35507;BME280;36461;52.018;21.036;2023-06-22T02:55:30;100406.18;;;18.37;99.53
35507;BME280;36461;52.018;21.036;2023-06-22T02:57:59;100411.23;;;18.38;99.39
35507;BME280;36461;52.018;21.036;2023-06-22T03:00:29;100409.67;;;18.37;99.36
35507;BME280;36461;52.018;21.036;2023-06-22T03:02:59;100408.77;;;18.38;99.33
35507;BME280;36461;52.018;21.036;2023-06-22T03:05:29;100410.81;;;18.39;99.21
35507;BME280;36461;52.018;21.036;2023-06-22T03:07:58;100412.63;;;18.40;99.28
35507;BME280;36461;52.018;21.036;2023-06-22T03:10:27;100417.58;;;18.42;99.37
35507;BME280;36461;52.018;21.036;2023-06-22T03:12:56;100415.25;;;18.46;99.54
35507;BME280;36461;52.018;21.036;2023-06-22T03:15:24;100418.02;;;18.52;99.62
35507;BME280;36461;52.018;21.036;2023-06-22T03:17:53;100421.56;;;18.59;99.87
35507;BME280;36461;52.018;21.036;2023-06-22T03:20:23;100426.33;;;18.67;100.00
35507;BME280;36461;52.018;21.036;2023-06-22T03:22:51;100422.76;;;18.79;100.00
35507;BME280;36461;52.018;21.036;2023-06-22T03:25:21;100423.39;;;18.88;100.00
35507;BME280;36461;52.018;21.036;2023-06-22T03:27:49;100427.34;;;18.95;100.00
35507;BME280;36461;52.018;21.036;2023-06-22T03:30:17;100430.77;;;19.02;100.00
35507;BME280;36461;52.018;21.036;2023-06-22T03:32:46;100430.06;;;19.07;100.00
35507;BME280;36461;52.018;21.036;2023-06-22T03:35:15;100433.16;;;19.13;100.00
35507;BME280;36461;52.018;21.036;2023-06-22T03:37:43;100440.24;;;19.20;100.00
35507;BME280;36461;52.018;21.036;2023-06-22T03:40:12;100435.67;;;19.25;100.00
35507;BME280;36461;52.018;21.036;2023-06-22T03:42:40;100435.28;;;19.28;100.00
35507;BME280;36461;52.018;21.036;2023-06-22T03:45:10;100431.35;;;19.35;100.00
35507;BME280;36461;52.018;21.036;2023-06-22T03:47:39;100435.47;;;19.41;100.00
35507;BME280;36461;52.018;21.036;2023-06-22T03:50:08;100442.21;;;19.48;100.00
35507;BME280;36461;52.018;21.036;2023-06-22T03:52:36;100448.33;;;19.53;100.00
35507;BME280;36461;52.018;21.036;2023-06-22T03:55:05;100446.48;;;19.57;100.00
35507;BME280;36461;52.018;21.036;2023-06-22T03:57:33;100445.28;;;19.62;100.00
35507;BME280;36461;52.018;21.036;2023-06-22T04:00:02;100449.63;;;19.70;100.00
35507;BME280;36461;52.018;21.036;2023-06-22T04:02:39;100461.77;;;19.77;100.00
35507;BME280;36461;52.018;21.036;2023-06-22T04:05:09;100462.08;;;19.81;100.00
35507;BME280;36461;52.018;21.036;2023-06-22T04:07:37;100470.30;;;19.87;100.00
35507;BME280;36461;52.018;21.036;2023-06-22T04:10:06;100475.09;;;19.91;100.00
35507;BME280;36461;52.018;21.036;2023-06-22T04:12:35;100471.46;;;19.98;100.00
35507;BME280;36461;52.018;21.036;2023-06-22T04:15:03;100478.45;;;20.06;100.00
35507;BME280;36461;52.018;21.036;2023-06-22T04:17:31;100474.18;;;20.11;100.00
35507;BME280;36461;52.018;21.036;2023-06-22T04:19:59;100474.17;;;20.14;100.00
35507;BME280;36461;52.018;21.036;2023-06-22T04:22:27;100472.63;;;20.19;100.00
35507;BME280;36461;52.018;21.036;2023-06-22T04:24:55;100473.79;;;20.24;100.00
35507;BME280;36461;52.018;21.036;2023-06-22T04:27:24;100472.65;;;20.31;100.00
35507;BME280;36461;52.018;21.036;2023-06-22T04:29:52;100472.70;;;20.35;100.00
35507;BME280;36461;52.018;21.036;2023-06-22T04:32:20;100476.64;;;20.36;100.00
35507;BME280;36461;52.018;21.036;2023-06-22T04:34:48;100477.45;;;20.42;100.00
35507;BME280;36461;52.018;21.036;2023-06-22T04:37:16;100475.64;;;20.50;100.00
35507;BME280;36461;52.018;21.036;2023-06-22T04:39:44;100476.27;;;20.58;100.00
35507;BME280;36461;52.018;21.036;2023-06-22T04:42:12;100473.35;;;20.67;100.00
35507;BME280;36461;52.018;21.036;2023-06-22T04:44:40;100474.05;;;20.75;100.00
35507;BME280;36461;52.018;21.036;2023-06-22T04:47:10;100472.36;;;20.81;100.00
35507;BME280;36461;52.018;21.036;2023-06-22T04:49:38;100472.35;;;20.89;100.00
35507;BME280;36461;52.018;21.036;2023-06-22T04:52:09;100473.09;;;20.93;100.00
35507;BME280;36461;52.018;21.036;2023-06-22T04:54:38;100475.60;;;20.97;100.00
35507;BME280;36461;52.018;21.036;2023-06-22T04:57:07;100479.53;;;21.01;100.00
35507;BME280;36461;52.018;21.036;2023-06-22T04:59:40;100482.52;;;21.08;100.00
35507;BME280;36461;52.018;21.036;2023-06-22T05:02:09;100481.86;;;21.17;100.00
35507;BME280;36461;52.018;21.036;2023-06-22T05:04:38;100480.24;;;21.24;100.00
35507;BME280;36461;52.018;21.036;2023-06-22T05:07:09;100482.15;;;21.32;99.98
35507;BME280;36461;52.018;21.036;2023-06-22T05:09:37;100482.73;;;21.36;99.59
35507;BME280;36461;52.018;21.036;2023-06-22T05:12:06;100480.32;;;21.40;99.50
35507;BME280;36461;52.018;21.036;2023-06-22T05:14:38;100479.11;;;21.44;98.97
35507;BME280;36461;52.018;21.036;2023-06-22T05:17:06;100476.09;;;21.44;98.78
35507;BME280;36461;52.018;21.036;2023-06-22T05:19:43;100472.61;;;21.51;98.74
35507;BME280;36461;52.018;21.036;2023-06-22T05:22:13;100476.98;;;21.54;98.31
35507;BME280;36461;52.018;21.036;2023-06-22T05:24:42;100479.42;;;21.59;98.31
35507;BME280;36461;52.018;21.036;2023-06-22T05:27:10;100477.67;;;21.68;97.97
35507;BME280;36461;52.018;21.036;2023-06-22T05:29:39;100480.75;;;21.71;97.34
35507;BME280;36461;52.018;21.036;2023-06-22T05:32:07;100490.15;;;21.77;97.21
35507;BME280;36461;52.018;21.036;2023-06-22T05:34:35;100493.73;;;21.88;97.14
35507;BME280;36461;52.018;21.036;2023-06-22T05:37:03;100496.52;;;21.93;96.57
35507;BME280;36461;52.018;21.036;2023-06-22T05:39:31;100498.48;;;21.94;96.14
35507;BME280;36461;52.018;21.036;2023-06-22T05:41:59;100502.55;;;22.04;96.03
35507;BME280;36461;52.018;21.036;2023-06-22T05:44:27;100503.89;;;22.05;95.54
35507;BME280;36461;52.018;21.036;2023-06-22T05:46:55;100505.97;;;22.07;94.86
35507;BME280;36461;52.018;21.036;2023-06-22T05:49:23;100509.15;;;22.07;94.64
35507;BME280;36461;52.018;21.036;2023-06-22T05:51:52;100510.67;;;22.12;94.37
35507;BME280;36461;52.018;21.036;2023-06-22T05:54:20;100507.05;;;22.14;94.17
35507;BME280;36461;52.018;21.036;2023-06-22T05:56:48;100508.45;;;22.23;93.98
35507;BME280;36461;52.018;21.036;2023-06-22T05:59:16;100507.23;;;22.27;93.69
35507;BME280;36461;52.018;21.036;2023-06-22T06:01:44;100509.66;;;22.41;93.59
35507;BME280;36461;52.018;21.036;2023-06-22T06:04:12;100513.20;;;22.54;93.48
35507;BME280;36461;52.018;21.036;2023-06-22T06:06:40;100521.02;;;22.64;93.15
35507;BME280;36461;52.018;21.036;2023-06-22T06:09:09;100524.16;;;22.74;92.63
35507;BME280;36461;52.018;21.036;2023-06-22T06:11:37;100524.45;;;22.79;92.03
35507;BME280;36461;52.018;21.036;2023-06-22T06:14:05;100526.43;;;22.87;92.17
35507;BME280;36461;52.018;21.036;2023-06-22T06:16:33;100529.61;;;22.93;91.46
35507;BME280;36461;52.018;21.036;2023-06-22T06:19:01;100536.07;;;22.97;90.74
35507;BME280;36461;52.018;21.036;2023-06-22T06:21:29;100537.52;;;23.03;90.58
35507;BME280;36461;52.018;21.036;2023-06-22T06:23:58;100537.95;;;23.08;90.49
35507;BME280;36461;52.018;21.036;2023-06-22T06:26:26;100541.39;;;23.11;89.74
35507;BME280;36461;52.018;21.036;2023-06-22T06:28:57;100543.08;;;23.10;88.72
35507;BME280;36461;52.018;21.036;2023-06-22T06:31:26;100543.79;;;23.10;89.04
35507;BME280;36461;52.018;21.036;2023-06-22T06:33:56;100540.43;;;23.19;88.60
35507;BME280;36461;52.018;21.036;2023-06-22T06:40:59;100540.77;;;23.68;87.52
35507;BME280;36461;52.018;21.036;2023-06-22T06:43:27;100538.19;;;23.82;87.07
35507;BME280;36461;52.018;21.036;2023-06-22T06:45:55;100536.91;;;23.99;86.64
35507;BME280;36461;52.018;21.036;2023-06-22T06:48:23;100536.23;;;24.25;86.46
35507;BME280;36461;52.018;21.036;2023-06-22T06:50:51;100534.83;;;24.58;85.88
35507;BME280;36461;52.018;21.036;2023-06-22T06:53:19;100529.56;;;24.79;84.43
35507;BME280;36461;52.018;21.036;2023-06-22T06:55:47;100532.00;;;25.07;84.26
35507;BME280;36461;52.018;21.036;2023-06-22T06:58:15;100530.65;;;25.38;82.84
35507;BME280;36461;52.018;21.036;2023-06-22T07:00:44;100533.28;;;25.65;81.74
35507;BME280;36461;52.018;21.036;2023-06-22T07:03:11;100536.34;;;25.91;81.06
35507;BME280;36461;52.018;21.036;2023-06-22T07:05:40;100526.73;;;26.23;80.38
35507;BME280;36461;52.018;21.036;2023-06-22T07:08:08;100524.73;;;26.46;79.75
35507;BME280;36461;52.018;21.036;2023-06-22T07:10:36;100523.52;;;26.62;78.24
35507;BME280;36461;52.018;21.036;2023-06-22T07:13:04;100521.42;;;26.49;77.44
35507;BME280;36461;52.018;21.036;2023-06-22T07:15:32;100528.82;;;26.42;77.14
35507;BME280;36461;52.018;21.036;2023-06-22T07:18:00;100529.77;;;26.41;76.40
35507;BME280;36461;52.018;21.036;2023-06-22T07:20:28;100529.60;;;26.28;75.80
35507;BME280;36461;52.018;21.036;2023-06-22T07:22:56;100527.19;;;26.20;75.53
35507;BME280;36461;52.018;21.036;2023-06-22T07:25:26;100530.98;;;26.06;74.86
35507;BME280;36461;52.018;21.036;2023-06-22T07:28:00;100528.29;;;25.89;74.94
35507;BME280;36461;52.018;21.036;2023-06-22T07:30:30;100529.10;;;25.79;74.68
35507;BME280;36461;52.018;21.036;2023-06-22T07:33:00;100529.56;;;25.72;74.36
35507;BME280;36461;52.018;21.036;2023-06-22T07:35:32;100529.52;;;25.69;74.22
35507;BME280;36461;52.018;21.036;2023-06-22T07:38:00;100532.17;;;25.73;74.33
35507;BME280;36461;52.018;21.036;2023-06-22T07:40:32;100535.33;;;25.73;73.79
35507;BME280;36461;52.018;21.036;2023-06-22T07:43:02;100534.59;;;25.68;72.98
35507;BME280;36461;52.018;21.036;2023-06-22T07:45:31;100538.25;;;25.61;72.90
35507;BME280;36461;52.018;21.036;2023-06-22T07:48:02;100534.62;;;25.56;72.91
35507;BME280;36461;52.018;21.036;2023-06-22T07:50:30;100541.06;;;25.57;72.87
35507;BME280;36461;52.018;21.036;2023-06-22T07:52:59;100542.27;;;25.48;72.44
35507;BME280;36461;52.018;21.036;2023-06-22T07:55:27;100545.70;;;25.41;72.32
35507;BME280;36461;52.018;21.036;2023-06-22T07:57:56;100552.79;;;25.40;71.30
35507;BME280;36461;52.018;21.036;2023-06-22T08:00:24;100554.20;;;25.34;70.79
35507;BME280;36461;52.018;21.036;2023-06-22T08:02:52;100553.39;;;25.23;70.13
35507;BME280;36461;52.018;21.036;2023-06-22T08:05:20;100550.98;;;25.18;70.61
35507;BME280;36461;52.018;21.036;2023-06-22T08:08:02;100552.66;;;25.23;70.70
35507;BME280;36461;52.018;21.036;2023-06-22T08:10:30;100555.57;;;25.28;70.37
35507;BME280;36461;52.018;21.036;2023-06-22T08:12:58;100554.84;;;25.25;68.81
35507;BME280;36461;52.018;21.036;2023-06-22T08:15:26;100556.20;;;25.21;68.53
35507;BME280;36461;52.018;21.036;2023-06-22T08:17:56;100559.73;;;25.25;68.44
35507;BME280;36461;52.018;21.036;2023-06-22T08:20:25;100555.37;;;25.26;67.86
35507;BME280;36461;52.018;21.036;2023-06-22T08:22:55;100554.20;;;25.26;66.97
35507;BME280;36461;52.018;21.036;2023-06-22T08:25:23;100553.00;;;25.23;67.16
35507;BME280;36461;52.018;21.036;2023-06-22T08:27:51;100550.63;;;25.30;67.31
35507;BME280;36461;52.018;21.036;2023-06-22T08:30:19;100544.61;;;25.36;67.08
35507;BME280;36461;52.018;21.036;2023-06-22T08:32:47;100547.38;;;25.41;66.38
35507;BME280;36461;52.018;21.036;2023-06-22T08:35:16;100543.98;;;25.39;65.66
35507;BME280;36461;52.018;21.036;2023-06-22T08:37:43;100542.60;;;25.39;65.56
35507;BME280;36461;52.018;21.036;2023-06-22T08:40:19;100540.48;;;25.39;65.48
35507;BME280;36461;52.018;21.036;2023-06-22T08:42:48;100537.79;;;25.43;65.02
35507;BME280;36461;52.018;21.036;2023-06-22T08:45:16;100540.18;;;25.45;64.45
35507;BME280;36461;52.018;21.036;2023-06-22T08:47:44;100540.08;;;25.45;64.14
35507;BME280;36461;52.018;21.036;2023-06-22T08:50:12;100540.27;;;25.49;63.67
35507;BME280;36461;52.018;21.036;2023-06-22T08:52:41;100535.90;;;25.50;63.35
35507;BME280;36461;52.018;21.036;2023-06-22T08:55:10;100536.60;;;25.54;63.44
35507;BME280;36461;52.018;21.036;2023-06-22T08:57:38;100537.39;;;25.59;63.30
35507;BME280;36461;52.018;21.036;2023-06-22T09:00:08;100543.81;;;25.66;63.36
35507;BME280;36461;52.018;21.036;2023-06-22T09:02:45;100543.59;;;25.74;63.02
35507;BME280;36461;52.018;21.036;2023-06-22T09:09:46;100546.13;;;25.87;61.39
35507;BME280;36461;52.018;21.036;2023-06-22T09:16:48;100554.05;;;25.85;58.69
35507;BME280;36461;52.018;21.036;2023-06-22T09:19:16;100554.45;;;25.81;58.01
35507;BME280;36461;52.018;21.036;2023-06-22T09:21:45;100552.33;;;25.81;57.85
35507;BME280;36461;52.018;21.036;2023-06-22T09:24:13;100558.59;;;25.82;58.07
35507;BME280;36461;52.018;21.036;2023-06-22T09:26:41;100548.78;;;25.86;57.86
35507;BME280;36461;52.018;21.036;2023-06-22T09:29:10;100548.38;;;25.91;58.08
35507;BME280;36461;52.018;21.036;2023-06-22T09:31:38;100549.80;;;25.98;57.20
35507;BME280;36461;52.018;21.036;2023-06-22T09:34:06;100550.59;;;26.00;56.15
35507;BME280;36461;52.018;21.036;2023-06-22T09:36:34;100550.62;;;25.99;56.12
35507;BME280;36461;52.018;21.036;2023-06-22T09:39:03;100547.34;;;26.04;56.38
35507;BME280;36461;52.018;21.036;2023-06-22T09:41:34;100540.34;;;26.10;55.93
35507;BME280;36461;52.018;21.036;2023-06-22T09:44:02;100538.90;;;26.15;55.82
35507;BME280;36461;52.018;21.036;2023-06-22T09:46:30;100534.36;;;26.21;56.36
35507;BME280;36461;52.018;21.036;2023-06-22T09:48:58;100539.05;;;26.29;55.99
35507;BME280;36461;52.018;21.036;2023-06-22T09:51:26;100540.16;;;26.31;55.43
35507;BME280;36461;52.018;21.036;2023-06-22T09:53:55;100537.69;;;26.33;55.60
35507;BME280;36461;52.018;21.036;2023-06-22T10:00:58;100549.41;;;26.31;53.96
35507;BME280;36461;52.018;21.036;2023-06-22T10:03:27;100550.80;;;26.35;54.41
35507;BME280;36461;52.018;21.036;2023-06-22T10:10:44;100552.77;;;26.39;52.76
35507;BME280;36461;52.018;21.036;2023-06-22T10:13:13;100550.71;;;26.43;53.08
35507;BME280;36461;52.018;21.036;2023-06-22T10:15:41;100547.99;;;26.53;52.65
35507;BME280;36461;52.018;21.036;2023-06-22T10:18:09;100546.20;;;26.62;52.40
35507;BME280;36461;52.018;21.036;2023-06-22T10:20:37;100548.55;;;26.69;52.12
35507;BME280;36461;52.018;21.036;2023-06-22T10:23:05;100549.61;;;26.71;50.94
35507;BME280;36461;52.018;21.036;2023-06-22T10:25:33;100548.56;;;26.69;50.84
35507;BME280;36461;52.018;21.036;2023-06-22T10:32:38;100547.45;;;26.73;49.97
35507;BME280;36461;52.018;21.036;2023-06-22T10:35:06;100548.94;;;26.76;50.03
35507;BME280;36461;52.018;21.036;2023-06-22T10:37:35;100541.65;;;26.80;49.83
35507;BME280;36461;52.018;21.036;2023-06-22T10:40:03;100533.48;;;26.86;50.11
35507;BME280;36461;52.018;21.036;2023-06-22T10:42:32;100535.42;;;26.91;49.88
35507;BME280;36461;52.018;21.036;2023-06-22T10:45:01;100531.88;;;26.97;49.85
35507;BME280;36461;52.018;21.036;2023-06-22T10:47:35;100530.89;;;27.06;49.61
35507;BME280;36461;52.018;21.036;2023-06-22T10:50:07;100532.94;;;27.16;49.66
35507;BME280;36461;52.018;21.036;2023-06-22T10:52:39;100532.77;;;27.20;48.55
35507;BME280;36461;52.018;21.036;2023-06-22T10:55:11;100533.11;;;27.16;48.02
35507;BME280;36461;52.018;21.036;2023-06-22T10:57:42;100529.02;;;27.12;48.22
35507;BME280;36461;52.018;21.036;2023-06-22T11:00:15;100528.77;;;27.15;48.38
35507;BME280;36461;52.018;21.036;2023-06-22T11:02:47;100521.54;;;27.20;48.71
35507;BME280;36461;52.018;21.036;2023-06-22T11:05:19;100513.69;;;27.29;49.08
35507;BME280;36461;52.018;21.036;2023-06-22T11:07:51;100509.70;;;27.35;48.99
35507;BME280;36461;52.018;21.036;2023-06-22T11:10:22;100508.29;;;27.39;48.92
35507;BME280;36461;52.018;21.036;2023-06-22T11:12:53;100508.48;;;27.42;48.72
35507;BME280;36461;52.018;21.036;2023-06-22T11:15:26;100508.91;;;27.41;48.33
35507;BME280;36461;52.018;21.036;2023-06-22T11:17:58;100512.63;;;27.40;47.72
35507;BME280;36461;52.018;21.036;2023-06-22T11:20:29;100512.52;;;27.39;47.98
35507;BME280;36461;52.018;21.036;2023-06-22T11:23:01;100514.83;;;27.41;47.81
35507;BME280;36461;52.018;21.036;2023-06-22T11:25:33;100515.73;;;27.46;47.81
35507;BME280;36461;52.018;21.036;2023-06-22T11:28:08;100513.22;;;27.50;47.42
35507;BME280;36461;52.018;21.036;2023-06-22T11:30:39;100507.89;;;27.48;47.17
35507;BME280;36461;52.018;21.036;2023-06-22T11:33:11;100510.59;;;27.50;47.71
35507;BME280;36461;52.018;21.036;2023-06-22T11:35:41;100514.88;;;27.54;48.07
35507;BME280;36461;52.018;21.036;2023-06-22T11:38:12;100510.74;;;27.53;47.38
35507;BME280;36461;52.018;21.036;2023-06-22T11:40:44;100503.06;;;27.53;47.77
35507;BME280;36461;52.018;21.036;2023-06-22T11:43:14;100506.36;;;27.56;47.32
35507;BME280;36461;52.018;21.036;2023-06-22T11:53:18;100507.12;;;27.61;47.23
35507;BME280;36461;52.018;21.036;2023-06-22T11:55:46;100507.29;;;27.59;46.04
35507;BME280;36461;52.018;21.036;2023-06-22T11:58:14;100511.92;;;27.61;46.08
35507;BME280;36461;52.018;21.036;2023-06-22T12:00:42;100510.27;;;27.61;45.53
35507;BME280;36461;52.018;21.036;2023-06-22T12:03:19;100512.98;;;27.59;44.98
35507;BME280;36461;52.018;21.036;2023-06-22T12:05:47;100510.09;;;27.61;45.50
35507;BME280;36461;52.018;21.036;2023-06-22T12:08:16;100507.45;;;27.66;45.31
35507;BME280;36461;52.018;21.036;2023-06-22T12:10:44;100502.79;;;27.69;45.70
35507;BME280;36461;52.018;21.036;2023-06-22T12:13:12;100503.46;;;27.74;44.93
35507;BME280;36461;52.018;21.036;2023-06-22T12:15:41;100503.84;;;27.77;44.62
35507;BME280;36461;52.018;21.036;2023-06-22T12:18:09;100502.73;;;27.81;44.91
35507;BME280;36461;52.018;21.036;2023-06-22T12:20:37;100501.80;;;27.85;45.18
35507;BME280;36461;52.018;21.036;2023-06-22T12:23:05;100496.02;;;27.91;45.56
35507;BME280;36461;52.018;21.036;2023-06-22T12:25:33;100495.13;;;27.98;46.06
35507;BME280;36461;52.018;21.036;2023-06-22T12:28:01;100489.20;;;28.02;45.59
35507;BME280;36461;52.018;21.036;2023-06-22T12:30:32;100489.19;;;27.99;44.88
35507;BME280;36461;52.018;21.036;2023-06-22T12:33:00;100489.29;;;27.96;44.60
35507;BME280;36461;52.018;21.036;2023-06-22T12:35:28;100488.70;;;27.93;44.21
35507;BME280;36461;52.018;21.036;2023-06-22T12:37:56;100489.42;;;27.91;44.78
35507;BME280;36461;52.018;21.036;2023-06-22T12:40:24;100485.42;;;27.90;44.25
35507;BME280;36461;52.018;21.036;2023-06-22T12:42:52;100490.23;;;27.87;43.38
35507;BME280;36461;52.018;21.036;2023-06-22T12:45:21;100487.59;;;27.83;43.44
35507;BME280;36461;52.018;21.036;2023-06-22T12:47:49;100488.41;;;27.87;43.68
35507;BME280;36461;52.018;21.036;2023-06-22T12:50:18;100493.02;;;27.90;43.83
35507;BME280;36461;52.018;21.036;2023-06-22T12:52:46;100493.28;;;27.86;43.41
35507;BME280;36461;52.018;21.036;2023-06-22T12:55:14;100493.04;;;27.84;43.76
35507;BME280;36461;52.018;21.036;2023-06-22T12:57:42;100486.81;;;27.86;43.32
35507;BME280;36461;52.018;21.036;2023-06-22T13:00:11;100483.64;;;27.85;43.09
35507;BME280;36461;52.018;21.036;2023-06-22T13:02:39;100485.04;;;27.87;43.10
35507;BME280;36461;52.018;21.036;2023-06-22T13:05:08;100492.89;;;27.89;43.16
35507;BME280;36461;52.018;21.036;2023-06-22T13:07:36;100496.52;;;27.88;42.92
35507;BME280;36461;52.018;21.036;2023-06-22T13:10:06;100494.05;;;27.84;42.01
35507;BME280;36461;52.018;21.036;2023-06-22T13:12:34;100490.93;;;27.83;41.86
35507;BME280;36461;52.018;21.036;2023-06-22T13:15:03;100490.78;;;27.87;42.12
35507;BME280;36461;52.018;21.036;2023-06-22T13:17:31;100492.34;;;27.90;42.27
35507;BME280;36461;52.018;21.036;2023-06-22T13:19:59;100488.30;;;27.90;41.98
35507;BME280;36461;52.018;21.036;2023-06-22T13:22:32;100484.08;;;27.93;42.54
35507;BME280;36461;52.018;21.036;2023-06-22T13:25:01;100485.86;;;27.98;43.00
35507;BME280;36461;52.018;21.036;2023-06-22T13:27:30;100481.58;;;28.04;42.50
35507;BME280;36461;52.018;21.036;2023-06-22T13:29:58;100489.95;;;28.05;41.97